Cullison, KS

2:45 PM CDT on April 27, 2015 (GMT -0500)
Pratt Industrial | | Change Station
CLOSE
Current Station
Airport
Location: Pratt,
Elevation: 1952 ft
Nearby Weather Stations

Elev 1952 ft 37.70 °N, 98.75 °W | Updated 10 minutes ago

Overcast
Overcast
55 °F
Feels Like 55 °F
N
20
Wind Variable Wind from ENE
Gusts 26 mph

Today
High -- | Low -- °F
--% Chance of Precip.
Yesterday
High -- | Low -- °F
Precip. -- in
6:44 AM 8:21 PM
Waxing Gibbous, 67% visible
Pressure 30.06 in
Visibility 10.0 miles
Clouds Scattered Clouds 7000 ft
Overcast 9000 ft
Dew Point 32 °F
Humidity 41%
Rainfall 0.00 in
Snow Depth Not available.
UV 3 out of 12
Pollen 9.90 out of 12
Air Quality Not available.
Flu Activity Sporadic
METAR KPTT 271935Z AUTO 06017G23KT 10SM SCT070 OVC090 13/00 A3006 RMK AO2

More Conditions Fewer Conditions

Pressure 30.06 in
Visibility 10.0 miles
Clouds Scattered Clouds 7000 ft
Overcast 9000 ft
Dew Point 32 °F
Humidity 41%
Rainfall 0.00 in
Snow Depth Not available.
UV 3 out of 12
Pollen 9.90 out of 12
Air Quality Not available.
Flu Activity Sporadic
METAR KPTT 271935Z AUTO 06017G23KT 10SM SCT070 OVC090 13/00 A3006 RMK AO2

More Conditions Fewer Conditions

10-Day Weather Forecast

Almanac

Astronomy

Apr. 27, 2015 Rise Set
Actual Time
Civil Twilight
Nautical Twilight
Astronomical Twilight
Moon
Length of Visible Light
Length of Day
Tomorrow will be .
, % of the Moon is Illuminated

Today's Extremes

State Highs State Lows

Community

WunderPhotos

Upload Photos

1,817,414 photos uploaded!

WunderBlogs® & News

Nearby

Air Quality

  Air Quality AQ Index Pollutant
Not available.

Snow Depth

Station Depth Elevation

Earthquake Activity

City Distance Mag. Time & Date
Minimum magnitude displayed is 2.5.

Coastal Water Temperatures

Place Temperature

Stations

Nearby Weather Stations

Station Location Temp. Windchill Dew Point Humidity Wind Precip. Elev Updated Type